Time;durP1;ratioP1;P1;durP2;ratioP2;P2;SDS_P1;SDS_P2;PMS_P1;PMS_P2;Temp;Humidity;BMP_temperature;BMP_pressure;BME280_temperature;BME280_humidity;BME280_pressure;Samples;Min_cycle;Max_cycle;Signal;HPM_P1;HPM_P2
2022/01/05 00:00:45;;;;;;;1.37;1.27;;;;;;;9.91;55.46;96309.56;8486029;28;20233;-77
2022/01/05 00:04:48;;;;;;;1.00;1.00;;;;;;;9.83;55.65;96302.34;8486785;28;20533;-75
2022/01/05 00:08:53;;;;;;;1.10;1.10;;;;;;;9.86;55.42;96302.16;8486451;28;20567;-75
2022/01/05 00:12:56;;;;;;;1.00;1.00;;;;;;;9.75;55.82;96302.84;8486102;28;20237;-75
2022/01/05 00:16:59;;;;;;;1.13;1.10;;;;;;;9.90;55.62;96305.31;8486103;28;20233;-76
2022/01/05 00:21:04;;;;;;;1.20;1.10;;;;;;;9.82;55.73;96294.69;8485858;28;20234;-77
2022/01/05 00:25:09;;;;;;;1.13;1.10;;;;;;;9.91;55.85;96294.88;8486008;28;20225;-75
2022/01/05 00:29:12;;;;;;;1.20;1.10;;;;;;;9.83;55.88;96286.81;8485395;28;20236;-74
2022/01/05 00:33:17;;;;;;;0.93;0.93;;;;;;;9.87;56.13;96284.88;8485308;28;20233;-76
2022/01/05 00:37:20;;;;;;;1.10;1.00;;;;;;;9.70;56.58;96294.56;8485780;28;20232;-75
2022/01/05 00:41:24;;;;;;;1.17;1.07;;;;;;;9.62;56.56;96301.22;8485403;28;20237;-76
2022/01/05 00:45:27;;;;;;;0.80;0.80;;;;;;;9.64;56.53;96297.59;8485310;28;20242;-76
2022/01/05 00:49:30;;;;;;;1.13;1.03;;;;;;;9.43;56.92;96286.09;8485118;28;20401;-76
2022/01/05 00:53:34;;;;;;;0.80;0.80;;;;;;;9.52;57.11;96294.06;8485228;28;20236;-76
2022/01/05 00:57:38;;;;;;;0.90;0.90;;;;;;;9.45;57.07;96284.25;8485412;28;20230;-76
2022/01/05 01:01:41;;;;;;;1.43;1.00;;;;;;;9.36;57.73;96288.25;8484695;28;20233;-77
2022/01/05 01:05:45;;;;;;;1.63;0.90;;;;;;;9.50;57.14;96285.59;8484161;28;20567;-76
2022/01/05 01:09:47;;;;;;;0.80;0.80;;;;;;;9.39;57.26;96282.91;8484859;28;20418;-77
2022/01/05 01:13:52;;;;;;;1.10;1.00;;;;;;;9.44;57.40;96280.00;8484638;28;20544;-76
2022/01/05 01:17:55;;;;;;;1.00;1.00;;;;;;;9.41;57.81;96277.63;8484757;28;20233;-76
2022/01/05 01:21:58;;;;;;;1.67;1.10;;;;;;;9.27;57.99;96273.34;8484312;28;20548;-76
2022/01/05 01:26:01;;;;;;;1.20;1.00;;;;;;;9.11;59.04;96278.72;8484491;28;20415;-76
2022/01/05 01:30:07;;;;;;;4.10;1.17;;;;;;;9.18;58.54;96267.06;8484473;28;20247;-76
2022/01/05 01:34:10;;;;;;;1.03;0.97;;;;;;;9.40;57.74;96256.09;8465536;28;20230;-77
2022/01/05 01:38:13;;;;;;;1.07;0.90;;;;;;;9.28;58.22;96249.19;8449549;28;20237;-76
2022/01/05 01:42:16;;;;;;;1.27;1.17;;;;;;;9.18;58.46;96252.38;8450554;28;20230;-76
2022/01/05 01:46:21;;;;;;;1.00;1.00;;;;;;;9.13;58.13;96238.13;8452102;28;20209;-76
2022/01/05 01:50:24;;;;;;;1.13;1.10;;;;;;;9.05;59.06;96237.81;8452329;28;20324;-76
2022/01/05 01:54:28;;;;;;;1.20;1.10;;;;;;;9.31;58.60;96229.16;8450464;28;20243;-76
2022/01/05 01:58:34;;;;;;;1.00;1.00;;;;;;;9.54;57.70;96219.03;8449187;28;20236;-76
2022/01/05 02:02:38;;;;;;;1.00;1.00;;;;;;;9.43;57.84;96237.84;8458716;28;20233;-76
2022/01/05 02:06:41;;;;;;;1.00;1.00;;;;;;;9.28;58.04;96246.59;8482892;28;20411;-76
2022/01/05 02:10:44;;;;;;;1.00;1.00;;;;;;;9.46;58.21;96257.47;8482489;28;20233;-76
2022/01/05 02:14:47;;;;;;;1.77;1.33;;;;;;;9.16;59.38;96253.41;8482694;28;20260;-75
2022/01/05 02:19:01;;;;;;;1.10;1.10;;;;;;;9.37;58.75;96264.91;8481919;28;20242;-76
2022/01/05 02:23:06;;;;;;;1.20;1.20;;;;;;;9.28;58.70;96247.44;8482365;28;20234;-76
2022/01/05 02:27:09;;;;;;;1.37;1.30;;;;;;;9.41;58.31;96244.88;8481857;28;20399;-76
2022/01/05 02:31:12;;;;;;;1.43;1.30;;;;;;;9.35;58.92;96253.84;8482163;28;20437;-76
2022/01/05 02:35:15;;;;;;;1.40;1.30;;;;;;;9.37;58.68;96244.25;8482045;28;20437;-77
2022/01/05 02:39:19;;;;;;;2.10;1.70;;;;;;;9.19;58.95;96253.19;8481734;28;20244;-76
2022/01/05 02:43:22;;;;;;;1.53;1.43;;;;;;;9.27;59.45;96232.88;8481794;28;20240;-76
2022/01/05 02:47:25;;;;;;;1.50;1.40;;;;;;;9.56;58.51;96233.50;8481929;28;20240;-76
2022/01/05 02:51:28;;;;;;;1.77;1.67;;;;;;;9.26;59.47;96240.72;8481819;28;20229;-76
2022/01/05 02:55:33;;;;;;;2.60;2.30;;;;;;;9.38;59.32;96245.88;8481441;28;20225;-75
2022/01/05 02:59:36;;;;;;;2.37;1.80;;;;;;;9.29;59.68;96256.84;8481408;28;20229;-76
2022/01/05 03:03:39;;;;;;;1.60;1.40;;;;;;;9.22;60.49;96260.75;8481293;28;20230;-76
2022/01/05 03:07:42;;;;;;;2.80;1.80;;;;;;;9.44;60.10;96272.25;8481424;28;20228;-76
2022/01/05 03:11:47;;;;;;;2.17;1.83;;;;;;;8.97;61.27;96253.78;8480784;28;20237;-76
2022/01/05 03:15:50;;;;;;;2.07;1.70;;;;;;;9.35;60.44;96250.44;8481274;28;20524;-76
2022/01/05 03:19:53;;;;;;;2.47;1.90;;;;;;;9.27;60.79;96250.09;8480753;28;20301;-76
2022/01/05 03:23:56;;;;;;;2.50;1.90;;;;;;;9.42;60.27;96246.50;8480891;28;20544;-76
2022/01/05 03:28:00;;;;;;;1.50;1.40;;;;;;;9.24;60.82;96242.59;8480589;28;20229;-76
2022/01/05 03:32:04;;;;;;;1.80;1.70;;;;;;;9.26;60.89;96241.53;8487456;28;20249;-76
2022/01/05 03:36:07;;;;;;;1.60;1.50;;;;;;;9.33;60.45;96224.72;8487437;28;20296;-78
2022/01/05 03:40:11;;;;;;;2.20;1.30;;;;;;;9.10;61.69;96239.16;8487690;28;20229;-77
2022/01/05 03:44:15;;;;;;;2.07;1.20;;;;;;;9.35;60.61;96240.94;8487544;28;20430;-77
2022/01/05 03:48:19;;;;;;;3.03;1.40;;;;;;;9.36;61.01;96241.75;8487489;28;20236;-77
2022/01/05 03:52:22;;;;;;;1.40;1.30;;;;;;;9.21;61.41;96233.25;8487146;28;20331;-76
2022/01/05 03:56:25;;;;;;;1.40;1.20;;;;;;;9.30;61.30;96242.97;8487151;28;20229;-76
2022/01/05 04:00:31;;;;;;;1.40;1.30;;;;;;;9.45;60.57;96248.06;8487064;28;20229;-76
2022/01/05 04:04:34;;;;;;;1.37;1.27;;;;;;;9.41;60.23;96242.28;8460332;28;20292;-76
2022/01/05 04:08:37;;;;;;;2.70;1.20;;;;;;;9.26;61.10;96254.44;8452939;28;20253;-76
2022/01/05 04:12:40;;;;;;;1.50;1.30;;;;;;;9.41;61.00;96251.78;8452869;28;20421;-76
2022/01/05 04:16:44;;;;;;;1.30;1.20;;;;;;;9.66;60.45;96256.94;8452861;28;20420;-75
2022/01/05 04:20:47;;;;;;;1.33;1.23;;;;;;;9.49;60.73;96257.25;8452878;28;20237;-76
2022/01/05 04:24:50;;;;;;;1.73;1.10;;;;;;;9.52;60.78;96252.72;8452772;28;20252;-75
2022/01/05 04:28:53;;;;;;;2.07;1.23;;;;;;;9.49;60.65;96259.84;8453008;28;20265;-75
2022/01/05 04:32:57;;;;;;;1.20;0.93;;;;;;;9.47;60.99;96243.63;8452395;28;20244;-75
2022/01/05 04:37:22;;;;;;;1.50;1.10;;;;;;;9.57;60.88;96240.28;8418199;28;20522;-76
2022/01/05 04:41:25;;;;;;;1.40;1.03;;;;;;;9.66;60.58;96238.84;8417969;28;20231;-75
2022/01/05 04:45:28;;;;;;;1.00;0.80;;;;;;;9.45;61.24;96238.56;8418743;28;20230;-75
2022/01/05 04:49:32;;;;;;;1.17;0.80;;;;;;;9.50;60.48;96238.22;8417920;28;20234;-75
2022/01/05 04:53:35;;;;;;;0.93;0.70;;;;;;;9.68;60.27;96246.50;8417912;28;20254;-75
2022/01/05 04:57:38;;;;;;;1.03;0.60;;;;;;;9.63;60.44;96251.97;8417960;28;20249;-75
2022/01/05 05:01:41;;;;;;;0.97;0.73;;;;;;;9.77;59.97;96248.47;8420019;28;20254;-75
2022/01/05 05:05:46;;;;;;;1.80;0.60;;;;;;;9.90;59.89;96259.63;8450962;28;20241;-75
2022/01/05 05:09:49;;;;;;;1.70;0.77;;;;;;;9.84;59.74;96261.78;8451143;28;20554;-75
2022/01/05 05:13:52;;;;;;;1.13;0.60;;;;;;;9.60;60.43;96252.19;8451251;28;20237;-75
2022/01/05 05:17:55;;;;;;;1.23;0.50;;;;;;;10.01;59.35;96253.69;8450983;28;20238;-75
2022/01/05 05:21:59;;;;;;;0.87;0.50;;;;;;;9.82;60.15;96246.38;8450789;28;20230;-75
2022/01/05 05:26:03;;;;;;;0.70;0.50;;;;;;;9.78;59.92;96248.34;8450920;28;20295;-75
2022/01/05 05:30:07;;;;;;;1.33;0.70;;;;;;;9.66;59.98;96246.63;8450625;28;20230;-76
2022/01/05 05:34:10;;;;;;;0.67;0.60;;;;;;;9.92;59.94;96252.59;8449730;28;20237;-76
2022/01/05 05:38:16;;;;;;;0.80;0.50;;;;;;;9.63;60.13;96264.09;8450044;28;20229;-76
2022/01/05 05:42:19;;;;;;;1.23;0.70;;;;;;;9.77;59.74;96251.88;8450458;28;20540;-76
2022/01/05 05:46:21;;;;;;;0.87;0.50;;;;;;;9.62;60.36;96259.84;8450249;28;20230;-76
2022/01/05 05:50:25;;;;;;;0.63;0.60;;;;;;;9.61;60.39;96247.84;8449866;28;20234;-76
2022/01/05 05:54:29;;;;;;;1.20;0.70;;;;;;;9.73;60.07;96250.44;8448187;28;20246;-76
2022/01/05 05:58:32;;;;;;;1.40;0.63;;;;;;;9.63;60.65;96258.91;8478667;28;20546;-76
2022/01/05 06:02:35;;;;;;;0.67;0.53;;;;;;;9.69;60.71;96261.94;8479407;28;20234;-76
2022/01/05 06:06:38;;;;;;;0.80;0.47;;;;;;;9.71;61.34;96285.06;8448780;28;20237;-76
2022/01/05 06:10:43;;;;;;;1.00;0.63;;;;;;;9.42;61.52;96297.34;8471588;28;20252;-75
2022/01/05 06:14:46;;;;;;;2.10;0.50;;;;;;;8.79;62.06;96308.25;8448741;28;20245;-75
2022/01/05 06:18:49;;;;;;;0.67;0.50;;;;;;;9.24;61.22;96323.47;8448516;28;20265;-75
2022/01/05 06:22:52;;;;;;;0.40;0.40;;;;;;;8.85;60.55;96325.09;8448541;28;20234;-75
2022/01/05 06:26:56;;;;;;;0.87;0.40;;;;;;;8.89;61.37;96342.06;8448435;28;20225;-75
2022/01/05 06:30:59;;;;;;;1.17;0.70;;;;;;;8.63;61.52;96366.94;8448015;28;20225;-76
2022/01/05 06:35:03;;;;;;;0.57;0.40;;;;;;;8.43;61.03;96383.63;8456625;28;20234;-75
2022/01/05 06:39:06;;;;;;;0.30;0.30;;;;;;;8.02;60.37;96402.38;8452645;28;20222;-75
2022/01/05 06:43:10;;;;;;;0.20;0.20;;;;;;;7.93;60.22;96426.13;8447314;28;20299;-76
2022/01/05 06:47:14;;;;;;;0.53;0.33;;;;;;;7.69;59.82;96452.41;8447902;28;20233;-76
2022/01/05 06:51:17;;;;;;;0.20;0.20;;;;;;;7.30;60.50;96460.59;8447626;28;20230;-76
2022/01/05 06:55:20;;;;;;;0.23;0.23;;;;;;;7.22;60.15;96490.16;8447515;28;20234;-75
2022/01/05 06:59:24;;;;;;;0.30;0.30;;;;;;;7.43;59.93;96497.66;8444495;28;20225;-75
2022/01/05 07:03:27;;;;;;;1.20;0.50;;;;;;;7.46;59.80;96509.50;8432329;28;20294;-75
2022/01/05 07:07:30;;;;;;;0.87;0.50;;;;;;;7.49;58.51;96529.97;8447678;28;20226;-76
2022/01/05 07:11:33;;;;;;;1.07;0.40;;;;;;;7.49;61.00;96537.69;8447211;28;20232;-76
2022/01/05 07:15:37;;;;;;;1.90;0.90;;;;;;;7.36;59.39;96552.97;8447386;28;20234;-77
2022/01/05 07:19:40;;;;;;;1.03;0.60;;;;;;;7.21;59.18;96568.31;8447560;28;20344;-73
2022/01/05 07:23:43;;;;;;;1.73;0.90;;;;;;;7.55;58.82;96578.56;8447516;28;20429;-76
2022/01/05 07:27:46;;;;;;;0.87;0.60;;;;;;;7.45;59.27;96588.53;8447232;28;20226;-76
2022/01/05 07:31:51;;;;;;;0.90;0.50;;;;;;;7.17;58.69;96592.56;8446944;28;20536;-76
2022/01/05 07:35:54;;;;;;;2.37;0.80;;;;;;;7.10;59.42;96605.84;8447632;28;20233;-75
2022/01/05 07:40:10;;;;;;;1.23;0.80;;;;;;;7.31;58.49;96606.47;8446383;28;20294;-76
2022/01/05 07:44:13;;;;;;;1.53;0.63;;;;;;;7.44;58.96;96620.34;8444830;28;20385;-76
2022/01/05 07:48:17;;;;;;;2.03;0.90;;;;;;;7.67;58.50;96631.16;8446793;28;20237;-75
2022/01/05 07:52:20;;;;;;;1.83;1.00;;;;;;;7.75;57.88;96632.44;8447437;28;20237;-76
2022/01/05 07:56:26;;;;;;;2.67;0.97;;;;;;;7.51;57.31;96649.22;8446243;28;20234;-76
2022/01/05 08:00:29;;;;;;;3.10;1.23;;;;;;;7.65;57.08;96667.31;8446324;28;20229;-75
2022/01/05 08:04:33;;;;;;;2.90;1.13;;;;;;;7.38;58.39;96670.44;8446249;28;20295;-76
2022/01/05 08:08:37;;;;;;;4.57;1.47;;;;;;;7.59;55.82;96678.78;8455409;28;20226;-76
2022/01/05 08:12:41;;;;;;;2.03;1.10;;;;;;;7.56;56.70;96697.00;8471157;28;20535;-76
2022/01/05 08:16:44;;;;;;;2.13;1.27;;;;;;;7.61;55.93;96707.88;8482236;28;20256;-75
2022/01/05 08:20:50;;;;;;;4.00;1.70;;;;;;;7.71;56.30;96728.00;8486532;28;20555;-76
2022/01/05 08:24:53;;;;;;;4.97;2.00;;;;;;;7.69;54.81;96733.28;8486631;28;20544;-76
2022/01/05 08:28:56;;;;;;;4.13;1.93;;;;;;;7.34;55.64;96738.47;8486336;28;20235;-76
2022/01/05 08:33:00;;;;;;;4.27;1.80;;;;;;;7.11;55.58;96746.53;8454869;28;20245;-76
2022/01/05 08:37:05;;;;;;;5.23;2.13;;;;;;;7.39;55.38;96766.59;8452421;28;20241;-76
2022/01/05 08:41:08;;;;;;;4.43;2.10;;;;;;;7.91;55.26;96766.47;8451629;28;20233;-77
2022/01/05 08:45:11;;;;;;;4.60;2.20;;;;;;;8.00;54.68;96775.47;8456810;28;20222;-76
2022/01/05 08:49:15;;;;;;;6.80;2.70;;;;;;;7.97;54.33;96781.59;8451808;28;20230;-76
2022/01/05 08:53:21;;;;;;;8.27;2.80;;;;;;;7.30;55.40;96791.06;8457246;28;20226;-76
2022/01/05 08:57:24;;;;;;;5.43;2.80;;;;;;;7.68;54.64;96790.84;8467418;28;20298;-75
2022/01/05 09:01:27;;;;;;;7.73;3.47;;;;;;;7.67;54.54;96798.66;8451226;28;20910;-77
2022/01/05 09:05:30;;;;;;;7.53;3.57;;;;;;;7.81;54.33;96815.09;8471952;28;20240;-78
2022/01/05 09:09:35;;;;;;;6.97;3.20;;;;;;;7.52;53.83;96816.59;8466862;28;20289;-78
2022/01/05 09:13:38;;;;;;;8.43;3.63;;;;;;;7.41;54.63;96817.13;8466066;28;20233;-78
2022/01/05 09:17:41;;;;;;;7.13;2.50;;;;;;;7.55;53.80;96831.88;8466888;28;20241;-78
2022/01/05 09:21:48;;;;;;;7.47;2.63;;;;;;;7.46;53.46;96837.47;8464211;28;20229;-78
2022/01/05 09:26:13;;;;;;;6.27;2.60;;;;;;;7.21;53.05;96837.84;8465887;28;20225;-78
2022/01/05 09:30:17;;;;;;;9.40;2.80;;;;;;;7.31;52.51;96841.66;8468777;28;20225;-78
2022/01/05 09:34:20;;;;;;;7.33;2.40;;;;;;;7.26;52.83;96835.91;8465980;28;20217;-79
2022/01/05 09:38:35;;;;;;;8.53;2.80;;;;;;;7.53;52.29;96836.25;8452383;28;20233;-79
2022/01/05 09:42:41;;;;;;;8.50;2.43;;;;;;;7.41;52.81;96847.19;8449542;28;20238;-78
2022/01/05 09:46:56;;;;;;;8.80;2.50;;;;;;;7.78;51.92;96858.22;8449840;28;20529;-78
2022/01/05 09:51:03;;;;;;;11.03;2.80;;;;;;;7.47;52.62;96861.50;8449266;28;20230;-78
2022/01/05 09:55:07;;;;;;;9.50;2.63;;;;;;;7.39;52.09;96862.72;8449384;28;20242;-78
2022/01/05 09:59:13;;;;;;;9.13;2.80;;;;;;;7.84;51.76;96873.38;8448923;28;20237;-78
2022/01/05 10:03:16;;;;;;;9.73;2.67;;;;;;;7.56;50.95;96885.06;8464365;28;20642;-78
2022/01/05 10:07:19;;;;;;;6.00;2.00;;;;;;;7.49;50.56;96882.88;8481449;28;20232;-78
2022/01/05 10:11:23;;;;;;;8.07;2.70;;;;;;;7.76;49.82;96885.81;8464937;28;20221;-78
2022/01/05 10:15:28;;;;;;;8.40;2.60;;;;;;;7.84;49.62;96888.84;8456792;28;20238;-78
2022/01/05 10:19:31;;;;;;;8.17;2.47;;;;;;;7.37;48.71;96894.63;8448804;28;20226;-78
2022/01/05 10:23:37;;;;;;;7.83;2.20;;;;;;;7.82;47.98;96888.09;8448523;28;20230;-78
2022/01/05 10:27:40;;;;;;;4.73;2.17;;;;;;;7.83;47.43;96903.47;8448120;28;20240;-78
2022/01/05 10:31:45;;;;;;;6.57;2.37;;;;;;;7.83;46.48;96906.06;8448373;28;20238;-78
2022/01/05 10:35:56;;;;;;;7.17;1.97;;;;;;;8.05;45.93;96906.72;8448405;28;20563;-78
2022/01/05 10:40:11;;;;;;;6.93;2.20;;;;;;;8.17;46.12;96914.66;8447526;28;20230;-78
2022/01/05 10:44:17;;;;;;;10.03;2.30;;;;;;;7.66;45.11;96918.94;8414109;28;20529;-78
2022/01/05 10:48:24;;;;;;;6.40;2.23;;;;;;;8.16;43.48;96927.63;8414931;28;20508;-78
2022/01/05 10:52:28;;;;;;;7.17;1.90;;;;;;;7.71;44.57;96929.03;8414535;28;20243;-78
2022/01/05 10:56:31;;;;;;;5.57;1.80;;;;;;;7.80;45.37;96938.88;8414013;28;20226;-77
2022/01/05 11:00:38;;;;;;;5.50;1.87;;;;;;;7.73;45.02;96932.34;8434227;28;20666;-79
2022/01/05 11:04:43;;;;;;;6.50;2.17;;;;;;;7.76;44.31;96929.63;8432440;28;20260;-80
2022/01/05 11:08:51;;;;;;;7.83;2.30;;;;;;;8.15;42.59;96936.28;8442163;28;20222;-78
2022/01/05 11:12:54;;;;;;;7.63;2.47;;;;;;;8.32;41.90;96951.72;8441475;28;20227;-78
2022/01/05 11:16:59;;;;;;;5.93;2.27;;;;;;;8.61;42.13;96947.66;8460656;28;20236;-77
2022/01/05 11:21:05;;;;;;;4.83;1.93;;;;;;;8.67;40.68;96951.66;8461603;28;20222;-77
2022/01/05 11:25:08;;;;;;;5.33;2.47;;;;;;;8.94;40.42;96951.09;8465469;28;20320;-77
2022/01/05 11:29:12;;;;;;;6.63;2.33;;;;;;;8.87;40.56;96947.19;8461237;28;20229;-77
2022/01/05 11:33:15;;;;;;;6.97;2.13;;;;;;;8.69;41.16;96956.75;8460123;28;20541;-78
2022/01/05 11:37:20;;;;;;;6.57;2.43;;;;;;;8.40;39.57;96949.59;8474966;28;20237;-77
2022/01/05 11:41:23;;;;;;;9.10;2.40;;;;;;;8.43;39.53;96958.09;8469378;28;20228;-77
2022/01/05 11:45:32;;;;;;;7.00;2.10;;;;;;;8.11;41.49;96976.88;8463160;28;20225;-77
2022/01/05 11:49:35;;;;;;;8.30;2.80;;;;;;;7.98;42.22;96962.94;8459151;28;20229;-77
2022/01/05 11:53:43;;;;;;;9.47;2.53;;;;;;;7.62;41.16;96971.56;8456058;28;20230;-77
2022/01/05 11:58:19;;;;;;;18.20;3.17;;;;;;;9.81;67.22;96971.28;8452918;28;20238;-74
2022/01/05 12:02:22;;;;;;;9.90;2.20;;;;;;;10.79;43.35;96964.66;8460462;28;20243;-74
2022/01/05 12:06:26;;;;;;;7.97;2.30;;;;;;;10.02;38.40;96969.22;8486273;28;20237;-78
2022/01/05 12:10:51;;;;;;;9.53;2.10;;;;;;;9.15;39.55;96988.69;8475631;28;20409;-78
2022/01/05 12:14:55;;;;;;;8.67;2.70;;;;;;;8.57;39.71;96992.59;8455509;28;20627;-78
2022/01/05 12:19:06;;;;;;;8.57;2.63;;;;;;;8.10;40.42;96987.25;8452758;28;20233;-78
2022/01/05 12:23:16;;;;;;;7.53;2.50;;;;;;;8.19;40.42;96987.63;8452395;28;20233;-78
2022/01/05 12:27:22;;;;;;;9.33;2.53;;;;;;;8.15;40.43;96986.13;8455410;28;20230;-78
2022/01/05 12:31:57;;;;;;;9.93;2.90;;;;;;;8.10;40.80;96982.94;8460304;28;20241;-77
2022/01/05 12:36:02;;;;;;;8.03;2.47;;;;;;;7.59;42.11;96990.56;8475010;28;20237;-77
2022/01/05 12:40:29;;;;;;;9.57;2.70;;;;;;;8.03;41.89;96985.00;8485693;28;20233;-77
2022/01/05 12:44:35;;;;;;;8.20;2.40;;;;;;;7.76;42.12;96987.16;8485215;28;20237;-82
2022/01/05 12:49:06;;;;;;;8.43;2.47;;;;;;;8.21;42.12;96996.13;8470632;28;20225;-69
2022/01/05 12:53:11;;;;;;;8.10;2.50;;;;;;;7.57;42.12;97005.25;8478853;28;20236;-68
2022/01/05 12:57:16;;;;;;;10.80;2.83;;;;;;;7.99;42.44;97008.41;8485231;28;20240;-68
2022/01/05 13:01:23;;;;;;;6.93;2.27;;;;;;;7.75;41.73;97010.44;8476404;28;20228;-68
2022/01/05 13:05:29;;;;;;;14.37;2.97;;;;;;;7.64;42.71;97011.78;8484874;28;20544;-67
2022/01/05 13:09:36;;;;;;;6.73;2.57;;;;;;;7.65;42.95;96999.72;8473216;28;20226;-67
2022/01/05 13:13:42;;;;;;;10.73;3.30;;;;;;;7.68;43.00;97012.47;8461936;28;20230;-67
2022/01/05 13:17:46;;;;;;;9.07;2.60;;;;;;;7.81;43.14;97029.03;8478801;28;20245;-68
2022/01/05 13:21:49;;;;;;;12.73;2.70;;;;;;;7.72;43.62;97036.38;8469535;28;20404;-67
2022/01/05 13:25:52;;;;;;;8.87;3.03;;;;;;;7.83;43.31;97032.34;8484437;28;20233;-68
2022/01/05 13:29:56;;;;;;;9.43;3.10;;;;;;;7.66;42.75;97041.81;8477871;28;20424;-68
2022/01/05 13:34:09;;;;;;;8.73;2.43;;;;;;;7.50;42.81;97039.97;8468253;28;20241;-68
2022/01/05 13:38:14;;;;;;;9.73;2.80;;;;;;;7.54;42.83;97033.75;8458131;28;20226;-67
2022/01/05 13:42:20;;;;;;;7.83;2.57;;;;;;;7.66;43.55;97042.66;8483887;28;20249;-68
2022/01/05 13:46:23;;;;;;;9.43;3.20;;;;;;;7.82;42.91;97042.72;8478593;28;20232;-67
2022/01/05 13:50:28;;;;;;;8.93;3.50;;;;;;;7.54;42.48;97041.47;8450071;28;20230;-67
2022/01/05 13:54:32;;;;;;;9.30;2.70;;;;;;;7.44;42.63;97055.69;8449829;28;20225;-68
2022/01/05 13:58:37;;;;;;;9.70;2.53;;;;;;;6.94;43.32;97069.09;8462239;28;20558;-68
2022/01/05 14:02:40;;;;;;;8.57;2.87;;;;;;;7.17;44.17;97068.09;8467325;28;20261;-68
2022/01/05 14:06:45;;;;;;;9.63;2.50;;;;;;;7.33;43.71;97065.63;8480963;28;20248;-68
2022/01/05 14:10:47;;;;;;;6.30;2.80;;;;;;;7.42;43.42;97060.06;8482654;28;20240;-68
2022/01/05 14:14:56;;;;;;;9.17;3.30;;;;;;;7.47;44.16;97071.00;8481412;28;20233;-67
2022/01/05 14:19:01;;;;;;;9.00;2.73;;;;;;;7.16;43.79;97074.97;8482513;28;20240;-68
2022/01/05 14:23:07;;;;;;;7.90;2.40;;;;;;;7.50;43.26;97070.88;8482267;28;20547;-68
2022/01/05 14:27:16;;;;;;;6.87;2.47;;;;;;;7.42;43.78;97071.22;8481789;28;20244;-68
2022/01/05 14:31:19;;;;;;;9.50;2.83;;;;;;;7.54;43.78;97071.53;8481693;28;20296;-68
2022/01/05 14:35:22;;;;;;;6.67;2.77;;;;;;;7.56;43.42;97075.75;8482199;28;20230;-67
2022/01/05 14:39:36;;;;;;;9.97;2.90;;;;;;;7.21;43.85;97070.44;8481858;28;20260;-68
2022/01/05 14:43:41;;;;;;;8.33;2.77;;;;;;;7.28;44.53;97083.88;8481617;28;20233;-69
2022/01/05 14:47:44;;;;;;;8.90;2.50;;;;;;;7.25;44.47;97078.88;8481826;28;20260;-68
2022/01/05 14:51:49;;;;;;;8.73;2.70;;;;;;;7.48;43.91;97074.41;8481594;28;20234;-68
2022/01/05 14:55:53;;;;;;;9.57;2.50;;;;;;;7.12;45.07;97060.59;8478060;28;20226;-67
2022/01/05 14:59:56;;;;;;;15.37;6.37;;;;;;;7.37;44.41;97064.63;8447596;28;20241;-67
2022/01/05 15:03:59;;;;;;;9.27;3.00;;;;;;;7.19;44.68;97072.25;8469129;28;20237;-68
2022/01/05 15:08:02;;;;;;;9.37;3.30;;;;;;;7.13;45.60;97085.41;8478674;28;20229;-67
2022/01/05 15:12:08;;;;;;;7.70;2.83;;;;;;;7.29;44.53;97085.56;8451638;28;20567;-67
2022/01/05 15:16:11;;;;;;;10.10;3.60;;;;;;;7.35;45.30;97090.44;8480591;28;20236;-67
2022/01/05 15:20:16;;;;;;;9.40;2.60;;;;;;;7.18;45.03;97087.78;8465104;28;20225;-68
2022/01/05 15:24:19;;;;;;;8.43;2.80;;;;;;;7.42;45.18;97083.25;8450079;28;20236;-68
2022/01/05 15:28:24;;;;;;;11.07;3.63;;;;;;;7.04;45.31;97086.66;8447617;28;20226;-68
2022/01/05 15:32:27;;;;;;;10.13;4.93;;;;;;;7.39;45.14;97088.56;8471724;28;20245;-68
2022/01/05 15:36:30;;;;;;;13.47;7.20;;;;;;;7.10;45.22;97088.13;8447163;28;20237;-69
2022/01/05 15:40:34;;;;;;;15.37;7.60;;;;;;;7.35;44.74;97097.31;8447293;28;20229;-67
2022/01/05 15:44:39;;;;;;;12.07;3.37;;;;;;;6.83;45.39;97090.16;8446695;28;20226;-69
2022/01/05 15:48:42;;;;;;;13.10;4.27;;;;;;;7.31;44.64;97094.06;8446367;28;20236;-69
2022/01/05 15:52:45;;;;;;;7.10;2.97;;;;;;;6.88;45.76;97093.38;8446506;28;20230;-68
2022/01/05 15:56:55;;;;;;;10.13;3.03;;;;;;;6.85;45.88;97102.09;8446521;28;20238;-68
2022/01/05 16:01:19;;;;;;;8.63;2.87;;;;;;;6.48;45.78;97101.97;8446426;28;20234;-68
2022/01/05 16:05:22;;;;;;;7.70;3.00;;;;;;;6.69;45.33;97111.34;8479266;28;20315;-68
2022/01/05 16:09:27;;;;;;;9.17;3.13;;;;;;;6.92;45.17;97104.38;8480171;28;20229;-67
2022/01/05 16:13:30;;;;;;;9.27;3.03;;;;;;;6.80;45.18;97104.00;8479969;28;20221;-68
2022/01/05 16:17:37;;;;;;;8.87;3.23;;;;;;;6.74;45.44;97124.88;8479850;28;20230;-68
2022/01/05 16:21:40;;;;;;;7.23;2.90;;;;;;;6.65;45.46;97118.34;8480152;28;20248;-68
2022/01/05 16:25:45;;;;;;;6.30;2.60;;;;;;;6.67;45.85;97131.16;8479746;28;20229;-68
2022/01/05 16:29:48;;;;;;;14.10;3.30;;;;;;;6.98;45.19;97137.56;8479814;28;20252;-67
2022/01/05 16:33:54;;;;;;;8.73;2.80;;;;;;;6.39;45.56;97137.44;8479513;28;20229;-69
2022/01/05 16:37:57;;;;;;;10.77;3.97;;;;;;;6.55;45.40;97144.53;8482806;28;20237;-85
2022/01/05 16:42:00;;;;;;;7.40;2.97;;;;;;;6.72;45.30;97141.25;8487018;28;20544;-81
2022/01/05 16:46:04;;;;;;;7.40;2.97;;;;;;;6.78;45.03;97148.72;8486315;28;20563;-86
2022/01/05 16:50:09;;;;;;;9.37;3.43;;;;;;;6.35;45.81;97135.88;8486512;28;20237;-86
2022/01/05 16:54:15;;;;;;;10.13;2.60;;;;;;;6.36;46.26;97144.44;8487147;28;20237;-86
2022/01/05 17:02:39;;;;;;;13.23;3.40;;;;;;;6.62;46.00;97151.91;8480375;28;20423;-82
2022/01/05 17:06:44;;;;;;;7.83;3.07;;;;;;;6.42;46.22;97157.06;8464963;28;20237;-86
2022/01/05 17:10:47;;;;;;;7.93;2.43;;;;;;;6.43;46.39;97143.28;8464708;28;20238;-85
2022/01/05 17:14:50;;;;;;;9.00;2.80;;;;;;;6.90;45.48;97145.63;8452083;28;20257;-91
2022/01/05 17:18:53;;;;;;;11.00;3.33;;;;;;;6.84;45.57;97154.44;8450875;28;20232;-81
2022/01/05 17:22:58;;;;;;;6.40;2.77;;;;;;;6.61;45.70;97170.84;8450194;28;20425;-83
2022/01/05 17:27:01;;;;;;;10.57;3.03;;;;;;;6.55;45.81;97193.41;8451042;28;20229;-85
2022/01/05 17:31:06;;;;;;;8.10;2.87;;;;;;;6.55;46.12;97198.53;8450950;28;20238;-86
2022/01/05 17:35:13;;;;;;;11.27;3.20;;;;;;;6.90;46.03;97191.97;8450635;28;20218;-85
2022/01/05 17:39:18;;;;;;;7.43;2.73;;;;;;;6.64;45.72;97211.03;8451644;28;20311;-83
2022/01/05 17:43:21;;;;;;;8.83;2.57;;;;;;;6.97;45.23;97200.28;8450867;28;20249;-85
2022/01/05 17:47:24;;;;;;;9.03;3.13;;;;;;;6.87;45.64;97201.53;8451602;28;20427;-89
2022/01/05 17:51:28;;;;;;;12.83;2.70;;;;;;;6.96;45.18;97207.13;8450866;28;20242;-86
2022/01/05 17:55:33;;;;;;;8.27;2.67;;;;;;;7.10;45.35;97216.00;8456414;28;20232;-86
2022/01/05 17:59:36;;;;;;;7.97;3.08;;;;;;;7.50;44.39;97210.00;8461476;28;20421;-87
2022/01/05 18:03:40;;;;;;;9.67;2.80;;;;;;;7.13;45.35;97211.56;8468465;28;20240;-88
2022/01/05 18:07:44;;;;;;;10.90;3.00;;;;;;;6.65;45.72;97217.88;8480749;28;20225;-86
2022/01/05 18:11:49;;;;;;;8.00;2.70;;;;;;;7.17;45.40;97217.44;8465498;28;20241;-88
2022/01/05 18:16:03;;;;;;;8.67;2.77;;;;;;;7.02;45.74;97226.63;8466138;28;20241;-86
2022/01/05 18:20:07;;;;;;;9.73;3.53;;;;;;;6.93;46.26;97239.88;8465330;28;20241;-88
2022/01/05 18:24:10;;;;;;;9.73;3.20;;;;;;;7.02;45.93;97245.50;8482668;28;20440;-89
2022/01/05 18:28:15;;;;;;;8.90;2.90;;;;;;;6.74;46.29;97244.94;8482859;28;20238;-88
2022/01/05 18:32:19;;;;;;;9.33;3.07;;;;;;;6.82;46.68;97250.66;8465069;28;20247;-87
2022/01/05 18:36:23;;;;;;;10.07;3.40;;;;;;;6.74;46.43;97261.25;8454771;28;20221;-87
2022/01/05 18:40:26;;;;;;;9.13;2.73;;;;;;;6.61;47.02;97249.78;8478549;28;20233;-89
2022/01/05 18:44:31;;;;;;;11.30;3.00;;;;;;;6.85;46.38;97248.78;8482642;28;20228;-89
2022/01/05 18:48:35;;;;;;;7.90;2.90;;;;;;;7.07;46.32;97244.50;8482348;28;20291;-89
2022/01/05 18:52:40;;;;;;;8.10;2.60;;;;;;;6.90;46.92;97247.75;8481295;28;20233;-90
2022/01/05 18:56:43;;;;;;;6.47;2.70;;;;;;;6.98;46.46;97238.81;8461218;28;20237;-90
2022/01/05 19:00:48;;;;;;;9.63;4.30;;;;;;;6.68;47.46;97250.34;8449413;28;20238;-88
2022/01/05 19:04:53;;;;;;;8.50;3.70;;;;;;;6.78;46.84;97249.94;8452871;28;20311;-89
2022/01/05 19:08:57;;;;;;;13.47;6.70;;;;;;;7.06;46.87;97238.47;8448532;28;20230;-90
2022/01/05 19:13:00;;;;;;;12.03;3.77;;;;;;;8.86;76.90;97239.88;8447610;28;20245;-74
2022/01/05 19:17:07;;;;;;;11.27;2.93;;;;;;;8.73;49.30;97226.72;8447428;28;20241;-86
2022/01/05 19:21:13;;;;;;;11.83;4.77;;;;;;;7.46;47.29;97234.19;8447263;28;20420;-87
2022/01/05 19:25:16;;;;;;;8.20;2.63;;;;;;;7.36;47.09;97228.63;8464523;28;20236;-89
2022/01/05 19:29:31;;;;;;;16.33;8.20;;;;;;;7.39;46.92;97231.06;8458921;28;20237;-86